sensor_id;sensor_type;location;lat;lon;timestamp;temperature;humidity
32215;DHT22;18708;53.124;23.190;2022-11-13T00:01:33;10.30;99.90
32215;DHT22;18708;53.124;23.190;2022-11-13T00:03:58;10.40;99.90
32215;DHT22;18708;53.124;23.190;2022-11-13T00:06:24;10.30;99.90
32215;DHT22;18708;53.124;23.190;2022-11-13T00:08:52;10.40;99.90
32215;DHT22;18708;53.124;23.190;2022-11-13T00:11:19;10.30;99.90
32215;DHT22;18708;53.124;23.190;2022-11-13T00:13:46;10.30;99.90
32215;DHT22;18708;53.124;23.190;2022-11-13T00:16:14;10.40;99.90
32215;DHT22;18708;53.124;23.190;2022-11-13T00:18:40;10.40;99.90
32215;DHT22;18708;53.124;23.190;2022-11-13T00:21:14;10.30;99.90
32215;DHT22;18708;53.124;23.190;2022-11-13T00:23:40;10.40;99.90
32215;DHT22;18708;53.124;23.190;2022-11-13T00:26:08;10.50;99.90
32215;DHT22;18708;53.124;23.190;2022-11-13T00:28:34;10.50;99.90
32215;DHT22;18708;53.124;23.190;2022-11-13T00:31:01;10.40;99.90
32215;DHT22;18708;53.124;23.190;2022-11-13T00:33:27;10.40;99.90
32215;DHT22;18708;53.124;23.190;2022-11-13T00:35:53;10.30;99.90
32215;DHT22;18708;53.124;23.190;2022-11-13T00:38:18;10.40;99.90
32215;DHT22;18708;53.124;23.190;2022-11-13T00:40:44;10.40;99.90
32215;DHT22;18708;53.124;23.190;2022-11-13T00:43:10;10.40;99.90
32215;DHT22;18708;53.124;23.190;2022-11-13T00:45:35;10.40;99.90
32215;DHT22;18708;53.124;23.190;2022-11-13T00:48:01;10.40;99.90
32215;DHT22;18708;53.124;23.190;2022-11-13T00:50:27;10.30;99.90
32215;DHT22;18708;53.124;23.190;2022-11-13T00:52:52;10.40;99.90
32215;DHT22;18708;53.124;23.190;2022-11-13T00:55:18;10.40;99.90
32215;DHT22;18708;53.124;23.190;2022-11-13T00:57:43;10.40;99.90
32215;DHT22;18708;53.124;23.190;2022-11-13T01:00:09;10.40;99.90
32215;DHT22;18708;53.124;23.190;2022-11-13T01:02:35;10.40;99.90
32215;DHT22;18708;53.124;23.190;2022-11-13T01:05:01;10.40;99.90
32215;DHT22;18708;53.124;23.190;2022-11-13T01:07:27;10.40;99.90
32215;DHT22;18708;53.124;23.190;2022-11-13T01:09:52;10.40;99.90
32215;DHT22;18708;53.124;23.190;2022-11-13T01:12:18;10.40;99.90
32215;DHT22;18708;53.124;23.190;2022-11-13T01:14:43;10.40;99.90
32215;DHT22;18708;53.124;23.190;2022-11-13T01:17:09;10.30;99.90
32215;DHT22;18708;53.124;23.190;2022-11-13T01:19:35;10.30;99.90
32215;DHT22;18708;53.124;23.190;2022-11-13T01:22:00;10.30;99.90
32215;DHT22;18708;53.124;23.190;2022-11-13T01:24:26;10.20;99.90
32215;DHT22;18708;53.124;23.190;2022-11-13T01:26:52;10.20;99.90
32215;DHT22;18708;53.124;23.190;2022-11-13T01:29:17;10.30;99.90
32215;DHT22;18708;53.124;23.190;2022-11-13T01:31:43;10.30;99.90
32215;DHT22;18708;53.124;23.190;2022-11-13T01:34:08;10.40;99.90
32215;DHT22;18708;53.124;23.190;2022-11-13T01:36:34;10.50;99.90
32215;DHT22;18708;53.124;23.190;2022-11-13T01:38:59;10.40;99.90
32215;DHT22;18708;53.124;23.190;2022-11-13T01:41:31;10.40;99.90
32215;DHT22;18708;53.124;23.190;2022-11-13T01:43:57;10.30;99.90
32215;DHT22;18708;53.124;23.190;2022-11-13T01:46:30;10.30;99.90
32215;DHT22;18708;53.124;23.190;2022-11-13T01:48:58;10.40;99.90
32215;DHT22;18708;53.124;23.190;2022-11-13T01:51:34;10.30;99.90
32215;DHT22;18708;53.124;23.190;2022-11-13T01:54:05;10.30;99.90
32215;DHT22;18708;53.124;23.190;2022-11-13T01:56:31;10.40;99.90
32215;DHT22;18708;53.124;23.190;2022-11-13T01:59:19;10.40;99.90
32215;DHT22;18708;53.124;23.190;2022-11-13T02:01:45;10.40;99.90
32215;DHT22;18708;53.124;23.190;2022-11-13T02:04:11;10.40;99.90
32215;DHT22;18708;53.124;23.190;2022-11-13T02:06:44;10.40;99.90
32215;DHT22;18708;53.124;23.190;2022-11-13T02:09:12;10.40;99.90
32215;DHT22;18708;53.124;23.190;2022-11-13T02:11:38;10.30;99.90
32215;DHT22;18708;53.124;23.190;2022-11-13T02:14:05;10.30;99.90
32215;DHT22;18708;53.124;23.190;2022-11-13T02:16:32;10.40;99.90
32215;DHT22;18708;53.124;23.190;2022-11-13T02:19:00;10.40;99.90
32215;DHT22;18708;53.124;23.190;2022-11-13T02:21:39;10.40;99.90
32215;DHT22;18708;53.124;23.190;2022-11-13T02:26:51;10.40;99.90
32215;DHT22;18708;53.124;23.190;2022-11-13T02:29:18;10.30;99.90
32215;DHT22;18708;53.124;23.190;2022-11-13T02:31:44;10.30;99.90
32215;DHT22;18708;53.124;23.190;2022-11-13T02:34:10;10.40;99.90
32215;DHT22;18708;53.124;23.190;2022-11-13T02:36:35;10.40;99.90
32215;DHT22;18708;53.124;23.190;2022-11-13T02:39:04;10.40;99.90
32215;DHT22;18708;53.124;23.190;2022-11-13T02:41:31;10.40;99.90
32215;DHT22;18708;53.124;23.190;2022-11-13T02:43:56;10.50;99.90
32215;DHT22;18708;53.124;23.190;2022-11-13T02:46:22;10.50;99.90
32215;DHT22;18708;53.124;23.190;2022-11-13T02:48:48;10.50;99.90
32215;DHT22;18708;53.124;23.190;2022-11-13T02:51:13;10.60;99.90
32215;DHT22;18708;53.124;23.190;2022-11-13T02:53:39;10.50;99.90
32215;DHT22;18708;53.124;23.190;2022-11-13T02:56:05;10.40;99.90
32215;DHT22;18708;53.124;23.190;2022-11-13T02:58:31;10.40;99.90
32215;DHT22;18708;53.124;23.190;2022-11-13T03:00:57;10.40;99.90
32215;DHT22;18708;53.124;23.190;2022-11-13T03:03:22;10.50;99.90
32215;DHT22;18708;53.124;23.190;2022-11-13T03:05:49;10.50;99.90
32215;DHT22;18708;53.124;23.190;2022-11-13T03:08:15;10.50;99.90
32215;DHT22;18708;53.124;23.190;2022-11-13T03:10:41;10.40;99.90
32215;DHT22;18708;53.124;23.190;2022-11-13T03:13:07;10.50;99.90
32215;DHT22;18708;53.124;23.190;2022-11-13T03:15:33;10.40;99.90
32215;DHT22;18708;53.124;23.190;2022-11-13T03:18:06;10.40;99.90
32215;DHT22;18708;53.124;23.190;2022-11-13T03:20:32;10.40;99.90
32215;DHT22;18708;53.124;23.190;2022-11-13T03:22:59;10.40;99.90
32215;DHT22;18708;53.124;23.190;2022-11-13T03:25:25;10.50;99.90
32215;DHT22;18708;53.124;23.190;2022-11-13T03:27:51;10.40;99.90
32215;DHT22;18708;53.124;23.190;2022-11-13T03:30:16;10.50;99.90
32215;DHT22;18708;53.124;23.190;2022-11-13T03:32:42;10.60;99.90
32215;DHT22;18708;53.124;23.190;2022-11-13T03:35:08;10.60;99.90
32215;DHT22;18708;53.124;23.190;2022-11-13T03:37:33;10.50;99.90
32215;DHT22;18708;53.124;23.190;2022-11-13T03:39:59;10.50;99.90
32215;DHT22;18708;53.124;23.190;2022-11-13T03:42:24;10.60;99.90
32215;DHT22;18708;53.124;23.190;2022-11-13T03:44:50;10.60;99.90
32215;DHT22;18708;53.124;23.190;2022-11-13T03:47:15;10.50;99.90
32215;DHT22;18708;53.124;23.190;2022-11-13T03:49:41;10.50;99.90
32215;DHT22;18708;53.124;23.190;2022-11-13T03:52:07;10.50;99.90
32215;DHT22;18708;53.124;23.190;2022-11-13T03:54:32;10.40;99.90
32215;DHT22;18708;53.124;23.190;2022-11-13T03:56:58;10.30;99.90
32215;DHT22;18708;53.124;23.190;2022-11-13T03:59:23;10.30;99.90
32215;DHT22;18708;53.124;23.190;2022-11-13T04:01:49;10.40;99.90
32215;DHT22;18708;53.124;23.190;2022-11-13T04:04:15;10.40;99.90
32215;DHT22;18708;53.124;23.190;2022-11-13T04:06:40;10.40;99.90
32215;DHT22;18708;53.124;23.190;2022-11-13T04:09:06;10.40;99.90
32215;DHT22;18708;53.124;23.190;2022-11-13T04:11:32;10.40;99.90
32215;DHT22;18708;53.124;23.190;2022-11-13T04:13:58;10.40;99.90
32215;DHT22;18708;53.124;23.190;2022-11-13T04:16:24;10.40;99.90
32215;DHT22;18708;53.124;23.190;2022-11-13T04:18:49;10.40;99.90
32215;DHT22;18708;53.124;23.190;2022-11-13T04:21:15;10.40;99.90
32215;DHT22;18708;53.124;23.190;2022-11-13T04:23:40;10.50;99.90
32215;DHT22;18708;53.124;23.190;2022-11-13T04:26:06;10.50;99.90
32215;DHT22;18708;53.124;23.190;2022-11-13T04:28:32;10.40;99.90
32215;DHT22;18708;53.124;23.190;2022-11-13T04:30:57;10.50;99.90
32215;DHT22;18708;53.124;23.190;2022-11-13T04:33:23;10.40;99.90
32215;DHT22;18708;53.124;23.190;2022-11-13T04:35:49;10.40;99.90
32215;DHT22;18708;53.124;23.190;2022-11-13T04:38:14;10.50;99.90
32215;DHT22;18708;53.124;23.190;2022-11-13T04:40:40;10.40;99.90
32215;DHT22;18708;53.124;23.190;2022-11-13T04:43:06;10.50;99.90
32215;DHT22;18708;53.124;23.190;2022-11-13T04:45:32;10.50;99.90
32215;DHT22;18708;53.124;23.190;2022-11-13T04:47:58;10.40;99.90
32215;DHT22;18708;53.124;23.190;2022-11-13T04:50:24;10.40;99.90
32215;DHT22;18708;53.124;23.190;2022-11-13T04:52:50;10.50;99.90
32215;DHT22;18708;53.124;23.190;2022-11-13T04:55:15;10.50;99.90
32215;DHT22;18708;53.124;23.190;2022-11-13T04:57:41;10.50;99.90
32215;DHT22;18708;53.124;23.190;2022-11-13T05:00:08;10.40;99.90
32215;DHT22;18708;53.124;23.190;2022-11-13T05:02:34;10.50;99.90
32215;DHT22;18708;53.124;23.190;2022-11-13T05:05:00;10.50;99.90
32215;DHT22;18708;53.124;23.190;2022-11-13T05:07:26;10.40;99.90
32215;DHT22;18708;53.124;23.190;2022-11-13T05:09:52;10.40;99.90
32215;DHT22;18708;53.124;23.190;2022-11-13T05:12:18;10.40;99.90
32215;DHT22;18708;53.124;23.190;2022-11-13T05:14:44;10.40;99.90
32215;DHT22;18708;53.124;23.190;2022-11-13T05:17:11;10.30;99.90
32215;DHT22;18708;53.124;23.190;2022-11-13T05:19:37;10.30;99.90
32215;DHT22;18708;53.124;23.190;2022-11-13T05:22:03;10.40;99.90
32215;DHT22;18708;53.124;23.190;2022-11-13T05:24:29;10.40;99.90
32215;DHT22;18708;53.124;23.190;2022-11-13T05:26:55;10.40;99.90
32215;DHT22;18708;53.124;23.190;2022-11-13T05:29:20;10.40;99.90
32215;DHT22;18708;53.124;23.190;2022-11-13T05:31:46;10.40;99.90
32215;DHT22;18708;53.124;23.190;2022-11-13T05:34:12;10.40;99.90
32215;DHT22;18708;53.124;23.190;2022-11-13T05:36:38;10.40;99.90
32215;DHT22;18708;53.124;23.190;2022-11-13T05:39:04;10.30;99.90
32215;DHT22;18708;53.124;23.190;2022-11-13T05:41:29;10.30;99.90
32215;DHT22;18708;53.124;23.190;2022-11-13T05:43:56;10.30;99.90
32215;DHT22;18708;53.124;23.190;2022-11-13T05:46:27;10.30;99.90
32215;DHT22;18708;53.124;23.190;2022-11-13T05:48:55;10.30;99.90
32215;DHT22;18708;53.124;23.190;2022-11-13T05:51:24;10.20;99.90
32215;DHT22;18708;53.124;23.190;2022-11-13T05:53:51;10.20;99.90
32215;DHT22;18708;53.124;23.190;2022-11-13T05:56:27;10.20;99.90
32215;DHT22;18708;53.124;23.190;2022-11-13T05:58:54;10.20;99.90
32215;DHT22;18708;53.124;23.190;2022-11-13T06:01:24;10.20;99.90
32215;DHT22;18708;53.124;23.190;2022-11-13T06:03:51;10.20;99.90
32215;DHT22;18708;53.124;23.190;2022-11-13T06:06:19;10.20;99.90
32215;DHT22;18708;53.124;23.190;2022-11-13T06:08:46;10.20;99.90
32215;DHT22;18708;53.124;23.190;2022-11-13T06:11:15;10.30;99.90
32215;DHT22;18708;53.124;23.190;2022-11-13T06:13:41;10.30;99.90
32215;DHT22;18708;53.124;23.190;2022-11-13T06:16:13;10.20;99.90
32215;DHT22;18708;53.124;23.190;2022-11-13T06:18:40;10.10;99.90
32215;DHT22;18708;53.124;23.190;2022-11-13T06:21:08;10.10;99.90
32215;DHT22;18708;53.124;23.190;2022-11-13T06:23:36;10.10;99.90
32215;DHT22;18708;53.124;23.190;2022-11-13T06:26:24;10.10;99.90
32215;DHT22;18708;53.124;23.190;2022-11-13T06:28:48;10.10;99.90
32215;DHT22;18708;53.124;23.190;2022-11-13T06:31:18;10.10;99.90
32215;DHT22;18708;53.124;23.190;2022-11-13T06:33:44;10.10;99.90
32215;DHT22;18708;53.124;23.190;2022-11-13T06:36:13;10.20;99.90
32215;DHT22;18708;53.124;23.190;2022-11-13T06:38:40;10.20;99.90
32215;DHT22;18708;53.124;23.190;2022-11-13T06:41:07;10.30;99.90
32215;DHT22;18708;53.124;23.190;2022-11-13T06:43:33;10.20;99.90
32215;DHT22;18708;53.124;23.190;2022-11-13T06:46:03;10.20;99.90
32215;DHT22;18708;53.124;23.190;2022-11-13T06:48:29;10.30;99.90
32215;DHT22;18708;53.124;23.190;2022-11-13T06:50:59;10.20;99.90
32215;DHT22;18708;53.124;23.190;2022-11-13T06:53:26;10.20;99.90
32215;DHT22;18708;53.124;23.190;2022-11-13T06:55:52;10.30;99.90
32215;DHT22;18708;53.124;23.190;2022-11-13T06:58:18;10.30;99.90
32215;DHT22;18708;53.124;23.190;2022-11-13T07:00:43;10.30;99.90
32215;DHT22;18708;53.124;23.190;2022-11-13T07:03:17;10.30;99.90
32215;DHT22;18708;53.124;23.190;2022-11-13T07:05:43;10.30;99.90
32215;DHT22;18708;53.124;23.190;2022-11-13T07:08:09;10.40;99.90
32215;DHT22;18708;53.124;23.190;2022-11-13T07:10:35;10.30;99.90
32215;DHT22;18708;53.124;23.190;2022-11-13T07:13:01;10.30;99.90
32215;DHT22;18708;53.124;23.190;2022-11-13T07:15:27;10.30;99.90
32215;DHT22;18708;53.124;23.190;2022-11-13T07:17:52;10.40;99.90
32215;DHT22;18708;53.124;23.190;2022-11-13T07:20:18;10.40;99.90
32215;DHT22;18708;53.124;23.190;2022-11-13T07:22:43;10.50;99.90
32215;DHT22;18708;53.124;23.190;2022-11-13T07:25:09;10.50;99.90
32215;DHT22;18708;53.124;23.190;2022-11-13T07:27:35;10.40;99.90
32215;DHT22;18708;53.124;23.190;2022-11-13T07:30:00;10.50;99.90
32215;DHT22;18708;53.124;23.190;2022-11-13T07:32:26;10.50;99.90
32215;DHT22;18708;53.124;23.190;2022-11-13T07:34:52;10.50;99.90
32215;DHT22;18708;53.124;23.190;2022-11-13T07:37:18;10.60;99.90
32215;DHT22;18708;53.124;23.190;2022-11-13T07:39:43;10.50;99.90
32215;DHT22;18708;53.124;23.190;2022-11-13T07:42:09;10.50;99.90
32215;DHT22;18708;53.124;23.190;2022-11-13T07:44:34;10.60;99.90
32215;DHT22;18708;53.124;23.190;2022-11-13T07:47:00;10.60;99.90
32215;DHT22;18708;53.124;23.190;2022-11-13T07:49:26;10.60;99.90
32215;DHT22;18708;53.124;23.190;2022-11-13T07:51:52;10.60;99.90
32215;DHT22;18708;53.124;23.190;2022-11-13T07:54:17;10.60;99.90
32215;DHT22;18708;53.124;23.190;2022-11-13T07:56:43;10.70;99.90
32215;DHT22;18708;53.124;23.190;2022-11-13T07:59:09;10.70;99.90
32215;DHT22;18708;53.124;23.190;2022-11-13T08:01:35;10.70;99.90
32215;DHT22;18708;53.124;23.190;2022-11-13T08:04:01;10.70;99.90
32215;DHT22;18708;53.124;23.190;2022-11-13T08:06:26;10.70;99.90
32215;DHT22;18708;53.124;23.190;2022-11-13T08:08:52;10.70;99.90
32215;DHT22;18708;53.124;23.190;2022-11-13T08:11:18;10.70;99.90
32215;DHT22;18708;53.124;23.190;2022-11-13T08:13:43;10.80;99.90
32215;DHT22;18708;53.124;23.190;2022-11-13T08:16:09;10.90;99.90
32215;DHT22;18708;53.124;23.190;2022-11-13T08:18:35;10.90;99.90
32215;DHT22;18708;53.124;23.190;2022-11-13T08:21:02;11.00;99.90
32215;DHT22;18708;53.124;23.190;2022-11-13T08:23:28;10.90;99.90
32215;DHT22;18708;53.124;23.190;2022-11-13T08:25:54;10.90;99.90
32215;DHT22;18708;53.124;23.190;2022-11-13T08:28:19;10.90;99.90
32215;DHT22;18708;53.124;23.190;2022-11-13T08:30:45;10.90;99.90
32215;DHT22;18708;53.124;23.190;2022-11-13T08:33:11;11.00;99.90
32215;DHT22;18708;53.124;23.190;2022-11-13T08:35:36;11.10;99.90
32215;DHT22;18708;53.124;23.190;2022-11-13T08:38:06;11.10;99.90
32215;DHT22;18708;53.124;23.190;2022-11-13T08:40:33;11.20;99.90
32215;DHT22;18708;53.124;23.190;2022-11-13T08:43:00;11.30;99.90
32215;DHT22;18708;53.124;23.190;2022-11-13T08:45:27;11.40;99.90
32215;DHT22;18708;53.124;23.190;2022-11-13T08:47:53;11.40;99.90
32215;DHT22;18708;53.124;23.190;2022-11-13T08:50:18;11.40;99.90
32215;DHT22;18708;53.124;23.190;2022-11-13T08:52:44;11.50;99.90
32215;DHT22;18708;53.124;23.190;2022-11-13T08:55:10;11.60;99.90
32215;DHT22;18708;53.124;23.190;2022-11-13T08:57:36;11.50;99.90
32215;DHT22;18708;53.124;23.190;2022-11-13T09:00:02;11.60;99.90
32215;DHT22;18708;53.124;23.190;2022-11-13T09:02:27;11.60;99.90
32215;DHT22;18708;53.124;23.190;2022-11-13T09:04:53;11.60;99.90
32215;DHT22;18708;53.124;23.190;2022-11-13T09:07:19;11.70;99.90
32215;DHT22;18708;53.124;23.190;2022-11-13T09:09:44;11.70;99.90
32215;DHT22;18708;53.124;23.190;2022-11-13T09:12:10;11.80;99.90
32215;DHT22;18708;53.124;23.190;2022-11-13T09:14:36;11.80;99.90
32215;DHT22;18708;53.124;23.190;2022-11-13T09:17:01;11.90;71.70
32215;DHT22;18708;53.124;23.190;2022-11-13T09:19:27;11.80;97.10
32215;DHT22;18708;53.124;23.190;2022-11-13T09:21:53;11.80;99.20
32215;DHT22;18708;53.124;23.190;2022-11-13T09:24:18;11.80;99.90
32215;DHT22;18708;53.124;23.190;2022-11-13T09:26:44;11.80;99.90
32215;DHT22;18708;53.124;23.190;2022-11-13T09:29:10;11.70;99.90
32215;DHT22;18708;53.124;23.190;2022-11-13T09:31:35;11.80;99.90
32215;DHT22;18708;53.124;23.190;2022-11-13T09:34:03;11.90;99.90
32215;DHT22;18708;53.124;23.190;2022-11-13T09:36:29;11.90;96.20
32215;DHT22;18708;53.124;23.190;2022-11-13T09:38:54;11.90;95.50
32215;DHT22;18708;53.124;23.190;2022-11-13T09:41:25;11.90;99.90
32215;DHT22;18708;53.124;23.190;2022-11-13T09:43:54;12.00;69.20
32215;DHT22;18708;53.124;23.190;2022-11-13T09:49:02;11.90;71.40
32215;DHT22;18708;53.124;23.190;2022-11-13T09:51:31;12.00;82.90
32215;DHT22;18708;53.124;23.190;2022-11-13T09:53:58;11.90;93.70
32215;DHT22;18708;53.124;23.190;2022-11-13T10:10:35;12.10;54.40
32215;DHT22;18708;53.124;23.190;2022-11-13T10:13:03;12.10;59.60
32215;DHT22;18708;53.124;23.190;2022-11-13T10:15:29;12.10;92.20
32215;DHT22;18708;53.124;23.190;2022-11-13T10:18:01;12.10;99.90
32215;DHT22;18708;53.124;23.190;2022-11-13T10:20:37;12.10;99.90
32215;DHT22;18708;53.124;23.190;2022-11-13T10:23:13;12.20;70.70
32215;DHT22;18708;53.124;23.190;2022-11-13T10:25:40;12.20;52.80
32215;DHT22;18708;53.124;23.190;2022-11-13T10:28:25;12.20;60.70
32215;DHT22;18708;53.124;23.190;2022-11-13T10:30:50;12.30;56.00
32215;DHT22;18708;53.124;23.190;2022-11-13T10:33:18;12.40;43.20
32215;DHT22;18708;53.124;23.190;2022-11-13T10:38:59;12.50;38.90
32215;DHT22;18708;53.124;23.190;2022-11-13T10:41:25;12.40;57.00
32215;DHT22;18708;53.124;23.190;2022-11-13T10:46:25;12.50;29.60
32215;DHT22;18708;53.124;23.190;2022-11-13T10:48:51;12.50;38.60
32215;DHT22;18708;53.124;23.190;2022-11-13T10:51:26;12.50;18.00
32215;DHT22;18708;53.124;23.190;2022-11-13T10:53:52;12.60;9.70
32215;DHT22;18708;53.124;23.190;2022-11-13T10:56:26;12.60;7.20
32215;DHT22;18708;53.124;23.190;2022-11-13T10:59:18;12.70;39.00
32215;DHT22;18708;53.124;23.190;2022-11-13T11:01:45;12.70;43.80
32215;DHT22;18708;53.124;23.190;2022-11-13T11:04:19;12.70;30.10
32215;DHT22;18708;53.124;23.190;2022-11-13T11:06:45;12.70;25.40
32215;DHT22;18708;53.124;23.190;2022-11-13T11:09:29;12.80;39.10
32215;DHT22;18708;53.124;23.190;2022-11-13T11:22:35;12.80;53.30
32215;DHT22;18708;53.124;23.190;2022-11-13T11:25:14;12.80;77.40
32215;DHT22;18708;53.124;23.190;2022-11-13T11:27:46;12.70;53.30
32215;DHT22;18708;53.124;23.190;2022-11-13T11:30:19;12.70;53.70
32215;DHT22;18708;53.124;23.190;2022-11-13T11:35:44;12.70;75.80
32215;DHT22;18708;53.124;23.190;2022-11-13T11:38:32;12.60;76.70
32215;DHT22;18708;53.124;23.190;2022-11-13T11:41:11;12.50;33.30
32215;DHT22;18708;53.124;23.190;2022-11-13T11:46:27;12.50;99.80
32215;DHT22;18708;53.124;23.190;2022-11-13T11:49:00;12.60;99.90
32215;DHT22;18708;53.124;23.190;2022-11-13T11:51:31;12.60;99.90
32215;DHT22;18708;53.124;23.190;2022-11-13T11:54:09;12.50;99.90
32215;DHT22;18708;53.124;23.190;2022-11-13T11:56:38;12.50;99.90
32215;DHT22;18708;53.124;23.190;2022-11-13T12:08:06;12.50;68.30
32215;DHT22;18708;53.124;23.190;2022-11-13T12:10:48;12.60;99.90
32215;DHT22;18708;53.124;23.190;2022-11-13T12:13:27;12.60;99.90
32215;DHT22;18708;53.124;23.190;2022-11-13T12:28:12;12.40;99.90
32215;DHT22;18708;53.124;23.190;2022-11-13T12:33:54;12.50;99.90
32215;DHT22;18708;53.124;23.190;2022-11-13T12:36:23;12.60;99.90
32215;DHT22;18708;53.124;23.190;2022-11-13T12:45:15;12.50;99.90
32215;DHT22;18708;53.124;23.190;2022-11-13T12:47:44;12.40;99.90
32215;DHT22;18708;53.124;23.190;2022-11-13T12:50:29;12.30;83.90
32215;DHT22;18708;53.124;23.190;2022-11-13T12:53:08;12.30;53.70
32215;DHT22;18708;53.124;23.190;2022-11-13T12:55:39;12.30;52.40
32215;DHT22;18708;53.124;23.190;2022-11-13T12:58:24;12.30;57.80
32215;DHT22;18708;53.124;23.190;2022-11-13T13:01:12;12.30;63.70
32215;DHT22;18708;53.124;23.190;2022-11-13T13:11:48;12.40;60.00
32215;DHT22;18708;53.124;23.190;2022-11-13T13:17:18;12.40;59.40
32215;DHT22;18708;53.124;23.190;2022-11-13T13:19:44;12.30;37.20
32215;DHT22;18708;53.124;23.190;2022-11-13T13:22:39;12.20;32.40
32215;DHT22;18708;53.124;23.190;2022-11-13T13:25:32;12.30;17.40
32215;DHT22;18708;53.124;23.190;2022-11-13T13:28:12;12.30;1.00
32215;DHT22;18708;53.124;23.190;2022-11-13T13:31:03;12.40;1.00
32215;DHT22;18708;53.124;23.190;2022-11-13T13:36:22;12.40;1.00
32215;DHT22;18708;53.124;23.190;2022-11-13T13:41:31;12.40;1.00
32215;DHT22;18708;53.124;23.190;2022-11-13T13:46:35;12.40;1.00
32215;DHT22;18708;53.124;23.190;2022-11-13T13:49:04;12.40;1.00
32215;DHT22;18708;53.124;23.190;2022-11-13T13:51:42;12.50;1.00
32215;DHT22;18708;53.124;23.190;2022-11-13T13:54:11;12.40;1.00
32215;DHT22;18708;53.124;23.190;2022-11-13T13:56:40;12.40;1.00
32215;DHT22;18708;53.124;23.190;2022-11-13T13:59:20;12.30;1.00
32215;DHT22;18708;53.124;23.190;2022-11-13T14:01:55;12.30;1.00
32215;DHT22;18708;53.124;23.190;2022-11-13T14:04:23;12.40;1.00
32215;DHT22;18708;53.124;23.190;2022-11-13T14:06:57;12.40;1.00
32215;DHT22;18708;53.124;23.190;2022-11-13T14:09:25;12.40;1.00
32215;DHT22;18708;53.124;23.190;2022-11-13T14:12:04;12.40;1.00
32215;DHT22;18708;53.124;23.190;2022-11-13T14:14:31;12.40;1.00
32215;DHT22;18708;53.124;23.190;2022-11-13T14:16:59;12.30;1.00
32215;DHT22;18708;53.124;23.190;2022-11-13T14:19:26;12.30;1.00
32215;DHT22;18708;53.124;23.190;2022-11-13T14:22:00;12.30;1.00
32215;DHT22;18708;53.124;23.190;2022-11-13T14:25:04;12.30;1.00
32215;DHT22;18708;53.124;23.190;2022-11-13T14:27:25;12.30;1.00
32215;DHT22;18708;53.124;23.190;2022-11-13T14:29:54;12.30;1.00
32215;DHT22;18708;53.124;23.190;2022-11-13T14:32:25;12.10;1.00
32215;DHT22;18708;53.124;23.190;2022-11-13T14:34:54;12.00;1.00
32215;DHT22;18708;53.124;23.190;2022-11-13T14:37:33;11.90;1.00
32215;DHT22;18708;53.124;23.190;2022-11-13T14:40:21;11.90;1.00
32215;DHT22;18708;53.124;23.190;2022-11-13T14:42:56;11.90;1.00
32215;DHT22;18708;53.124;23.190;2022-11-13T14:45:28;12.00;1.00
32215;DHT22;18708;53.124;23.190;2022-11-13T14:48:19;12.00;1.00
32215;DHT22;18708;53.124;23.190;2022-11-13T14:51:05;12.00;1.00
32215;DHT22;18708;53.124;23.190;2022-11-13T14:53:37;12.00;1.00
32215;DHT22;18708;53.124;23.190;2022-11-13T14:56:10;12.00;1.00
32215;DHT22;18708;53.124;23.190;2022-11-13T14:58:37;11.90;1.00
32215;DHT22;18708;53.124;23.190;2022-11-13T15:01:18;11.90;1.00
32215;DHT22;18708;53.124;23.190;2022-11-13T15:03:46;11.90;1.00
32215;DHT22;18708;53.124;23.190;2022-11-13T15:06:24;11.60;1.00
32215;DHT22;18708;53.124;23.190;2022-11-13T15:08:55;11.60;1.00
32215;DHT22;18708;53.124;23.190;2022-11-13T15:11:23;11.40;1.00
32215;DHT22;18708;53.124;23.190;2022-11-13T15:13:49;11.40;1.00
32215;DHT22;18708;53.124;23.190;2022-11-13T15:16:20;11.50;1.00
32215;DHT22;18708;53.124;23.190;2022-11-13T15:18:51;11.50;1.00
32215;DHT22;18708;53.124;23.190;2022-11-13T15:21:17;11.30;1.00
32215;DHT22;18708;53.124;23.190;2022-11-13T15:23:43;11.30;1.00
32215;DHT22;18708;53.124;23.190;2022-11-13T15:26:12;11.30;1.00
32215;DHT22;18708;53.124;23.190;2022-11-13T15:28:38;11.40;1.00
32215;DHT22;18708;53.124;23.190;2022-11-13T15:31:21;11.40;1.00
32215;DHT22;18708;53.124;23.190;2022-11-13T15:33:48;11.40;1.00
32215;DHT22;18708;53.124;23.190;2022-11-13T15:36:14;11.50;1.00
32215;DHT22;18708;53.124;23.190;2022-11-13T15:38:39;11.50;1.00
32215;DHT22;18708;53.124;23.190;2022-11-13T15:41:13;11.50;1.00
32215;DHT22;18708;53.124;23.190;2022-11-13T15:43:43;11.50;1.00
32215;DHT22;18708;53.124;23.190;2022-11-13T15:46:13;11.40;1.00
32215;DHT22;18708;53.124;23.190;2022-11-13T15:48:40;11.40;1.00
32215;DHT22;18708;53.124;23.190;2022-11-13T15:51:21;11.20;1.00
32215;DHT22;18708;53.124;23.190;2022-11-13T15:53:55;11.00;1.00
32215;DHT22;18708;53.124;23.190;2022-11-13T15:56:22;11.00;1.00
32215;DHT22;18708;53.124;23.190;2022-11-13T15:58:49;11.00;1.00
32215;DHT22;18708;53.124;23.190;2022-11-13T16:01:15;11.00;1.00
32215;DHT22;18708;53.124;23.190;2022-11-13T16:03:41;11.10;1.00
32215;DHT22;18708;53.124;23.190;2022-11-13T16:06:15;11.10;1.00
32215;DHT22;18708;53.124;23.190;2022-11-13T16:08:42;11.00;1.00
32215;DHT22;18708;53.124;23.190;2022-11-13T16:11:15;10.90;1.00
32215;DHT22;18708;53.124;23.190;2022-11-13T16:13:42;11.00;1.00
32215;DHT22;18708;53.124;23.190;2022-11-13T16:16:34;11.00;1.00
32215;DHT22;18708;53.124;23.190;2022-11-13T16:18:59;10.90;1.00
32215;DHT22;18708;53.124;23.190;2022-11-13T16:21:26;11.00;1.00
32215;DHT22;18708;53.124;23.190;2022-11-13T16:23:52;10.90;1.00
32215;DHT22;18708;53.124;23.190;2022-11-13T16:26:22;11.00;1.00
32215;DHT22;18708;53.124;23.190;2022-11-13T16:28:50;11.00;1.00
32215;DHT22;18708;53.124;23.190;2022-11-13T16:31:17;11.00;1.00
32215;DHT22;18708;53.124;23.190;2022-11-13T16:33:42;11.00;1.00
32215;DHT22;18708;53.124;23.190;2022-11-13T16:36:20;11.10;1.00
32215;DHT22;18708;53.124;23.190;2022-11-13T16:38:47;11.20;1.00
32215;DHT22;18708;53.124;23.190;2022-11-13T16:41:14;11.20;1.00
32215;DHT22;18708;53.124;23.190;2022-11-13T16:43:41;11.20;1.00
32215;DHT22;18708;53.124;23.190;2022-11-13T16:46:31;11.20;1.00
32215;DHT22;18708;53.124;23.190;2022-11-13T16:48:57;11.20;1.00
32215;DHT22;18708;53.124;23.190;2022-11-13T16:51:23;11.20;1.00
32215;DHT22;18708;53.124;23.190;2022-11-13T16:53:49;11.20;1.00
32215;DHT22;18708;53.124;23.190;2022-11-13T16:56:21;11.20;1.00
32215;DHT22;18708;53.124;23.190;2022-11-13T16:58:49;11.10;1.00
32215;DHT22;18708;53.124;23.190;2022-11-13T17:01:17;11.10;1.00